createdAt,value
2018-12-07T00:00:11.721Z,10.38
2018-12-07T00:01:11.665Z,10.43
2018-12-07T00:02:11.757Z,10.42
2018-12-07T00:03:11.682Z,10.41
2018-12-07T00:04:11.747Z,10.4
2018-12-07T00:05:11.697Z,10.41
2018-12-07T00:06:11.714Z,10.37
2018-12-07T00:07:11.754Z,10.37
2018-12-07T00:08:11.896Z,10.36
2018-12-07T00:09:11.769Z,10.39
2018-12-07T00:10:11.701Z,10.39
2018-12-07T00:11:11.715Z,10.38
2018-12-07T00:12:11.715Z,10.39
2018-12-07T00:13:11.754Z,10.39
2018-12-07T00:14:13.547Z,10.42
2018-12-07T00:15:11.659Z,10.36
2018-12-07T00:16:11.810Z,10.37
2018-12-07T00:17:11.943Z,10.4
2018-12-07T00:18:11.934Z,10.4
2018-12-07T00:19:11.736Z,10.41
2018-12-07T00:20:11.755Z,10.44
2018-12-07T00:21:11.771Z,10.43
2018-12-07T00:22:11.844Z,10.41
2018-12-07T00:23:11.785Z,10.45
2018-12-07T00:24:11.809Z,10.43
2018-12-07T00:25:11.846Z,10.42
2018-12-07T00:26:11.867Z,10.47
2018-12-07T00:27:11.810Z,10.45
2018-12-07T00:28:11.692Z,10.42
2018-12-07T00:29:11.807Z,10.43
2018-12-07T00:30:11.717Z,10.43
2018-12-07T00:31:11.866Z,10.44
2018-12-07T00:32:11.705Z,10.45
2018-12-07T00:33:11.787Z,10.51
2018-12-07T00:34:11.839Z,10.5
2018-12-07T00:35:11.901Z,10.5
2018-12-07T00:36:11.696Z,10.44
2018-12-07T00:37:12.048Z,10.51
2018-12-07T00:38:11.719Z,10.49
2018-12-07T00:39:11.671Z,10.49
2018-12-07T00:40:11.845Z,10.49
2018-12-07T00:41:11.801Z,10.45
2018-12-07T00:42:12.125Z,10.54
2018-12-07T00:43:11.798Z,10.49
2018-12-07T00:44:11.856Z,10.52
2018-12-07T00:45:11.778Z,10.56
2018-12-07T00:46:11.680Z,10.57
2018-12-07T00:47:11.929Z,10.52
2018-12-07T00:48:11.884Z,10.56
2018-12-07T00:49:11.680Z,10.59
2018-12-07T00:50:11.693Z,10.56
2018-12-07T00:51:11.652Z,10.56
2018-12-07T00:52:11.755Z,10.58
2018-12-07T00:53:11.628Z,10.57
2018-12-07T00:54:12.012Z,10.58
2018-12-07T00:55:11.823Z,10.57
2018-12-07T00:56:11.819Z,10.61
2018-12-07T00:57:11.825Z,10.61
2018-12-07T00:58:12.069Z,10.63
2018-12-07T00:59:11.852Z,10.63
2018-12-07T01:00:11.697Z,10.66
2018-12-07T01:01:11.622Z,10.65
2018-12-07T01:02:11.797Z,10.63
2018-12-07T01:03:11.678Z,10.66
2018-12-07T01:04:11.691Z,10.63
2018-12-07T01:05:11.624Z,10.66
2018-12-07T01:06:11.842Z,10.68
2018-12-07T01:07:11.649Z,10.66
2018-12-07T01:08:11.973Z,10.69
2018-12-07T01:09:12.045Z,10.65
2018-12-07T01:10:11.789Z,10.66
2018-12-07T01:11:11.832Z,10.63
2018-12-07T01:12:11.866Z,10.63
2018-12-07T01:13:11.685Z,10.65
2018-12-07T01:14:11.825Z,10.64
2018-12-07T01:15:11.991Z,10.62
2018-12-07T01:16:11.649Z,10.6
2018-12-07T01:17:11.659Z,10.61
2018-12-07T01:18:11.699Z,10.6
2018-12-07T01:19:11.828Z,10.64
2018-12-07T01:20:11.741Z,10.61
2018-12-07T01:21:11.798Z,10.61
2018-12-07T01:22:11.805Z,10.61
2018-12-07T01:23:11.893Z,10.6
2018-12-07T01:24:11.836Z,10.6
2018-12-07T01:25:11.810Z,10.63
2018-12-07T01:26:11.731Z,10.66
2018-12-07T01:27:11.756Z,10.66
2018-12-07T01:28:11.764Z,10.7
2018-12-07T01:29:11.665Z,10.62
2018-12-07T01:30:11.640Z,10.69
2018-12-07T01:31:11.751Z,10.66
2018-12-07T01:32:11.710Z,10.66
2018-12-07T01:33:11.643Z,10.64
2018-12-07T01:34:11.564Z,10.66
2018-12-07T01:35:11.622Z,10.63
2018-12-07T01:36:11.629Z,10.62
2018-12-07T01:37:11.653Z,10.62
2018-12-07T01:38:11.733Z,10.6
2018-12-07T01:39:11.612Z,10.59
2018-12-07T01:40:11.593Z,10.56
2018-12-07T01:41:11.565Z,10.54
2018-12-07T01:42:11.603Z,10.54
2018-12-07T01:43:11.631Z,10.56
2018-12-07T01:44:11.808Z,10.55
2018-12-07T01:45:11.637Z,10.55
2018-12-07T01:46:11.577Z,10.54
2018-12-07T01:47:11.587Z,10.55
2018-12-07T01:48:11.617Z,10.55
2018-12-07T01:49:11.667Z,10.57
2018-12-07T01:50:11.698Z,10.58
2018-12-07T01:51:11.581Z,10.6
2018-12-07T01:52:11.590Z,10.6
2018-12-07T01:53:12.078Z,10.59
2018-12-07T01:54:11.727Z,10.65
2018-12-07T01:55:11.580Z,10.63
2018-12-07T01:56:11.751Z,10.63
2018-12-07T01:57:11.895Z,10.66
2018-12-07T01:58:11.599Z,10.65
2018-12-07T01:59:11.670Z,10.66
2018-12-07T02:00:11.712Z,10.69
2018-12-07T02:01:11.790Z,10.68
2018-12-07T02:02:11.679Z,10.71
2018-12-07T02:03:11.581Z,10.68
2018-12-07T02:04:11.536Z,10.73
2018-12-07T02:05:11.713Z,10.7
2018-12-07T02:06:11.636Z,10.71
2018-12-07T02:07:11.593Z,10.74
2018-12-07T02:08:11.714Z,10.72
2018-12-07T02:09:11.615Z,10.72
2018-12-07T02:10:11.639Z,10.7
2018-12-07T02:11:11.536Z,10.71
2018-12-07T02:12:11.524Z,10.71
2018-12-07T02:13:11.543Z,10.66
2018-12-07T02:14:11.889Z,10.69
2018-12-07T02:15:11.640Z,10.7
2018-12-07T02:16:11.625Z,10.73
2018-12-07T02:17:11.549Z,10.72
2018-12-07T02:18:11.662Z,10.72
2018-12-07T02:19:11.547Z,10.73
2018-12-07T02:20:11.610Z,10.74
2018-12-07T02:21:11.597Z,10.73
2018-12-07T02:22:11.726Z,10.73
2018-12-07T02:23:11.736Z,10.72
2018-12-07T02:24:11.483Z,10.74
2018-12-07T02:25:11.916Z,10.71
2018-12-07T02:26:11.550Z,10.71
2018-12-07T02:27:11.726Z,10.71
2018-12-07T02:28:11.594Z,10.76
2018-12-07T02:29:11.489Z,10.72
2018-12-07T02:30:11.772Z,10.71
2018-12-07T02:31:11.552Z,10.78
2018-12-07T02:32:11.590Z,10.74
2018-12-07T02:33:11.550Z,10.75
2018-12-07T02:34:11.802Z,10.71
2018-12-07T02:35:11.503Z,10.7
2018-12-07T02:36:11.524Z,10.74
2018-12-07T02:37:11.675Z,10.7
2018-12-07T02:38:11.866Z,10.74
2018-12-07T02:39:11.692Z,10.72
2018-12-07T02:40:11.676Z,10.75
2018-12-07T02:41:11.720Z,10.75
2018-12-07T02:42:11.523Z,10.75
2018-12-07T02:43:11.532Z,10.74
2018-12-07T02:44:11.708Z,10.74
2018-12-07T02:45:11.514Z,10.72
2018-12-07T02:46:11.555Z,10.68
2018-12-07T02:47:11.572Z,10.7
2018-12-07T02:48:11.879Z,10.71
2018-12-07T02:49:11.549Z,10.74
2018-12-07T02:50:11.482Z,10.7
2018-12-07T02:51:11.666Z,10.7
2018-12-07T02:52:11.728Z,10.67
2018-12-07T02:53:11.852Z,10.7
2018-12-07T02:54:12.137Z,10.68
2018-12-07T02:55:11.494Z,10.66
2018-12-07T02:56:11.494Z,10.71
2018-12-07T02:57:11.889Z,10.7
2018-12-07T02:58:11.524Z,10.7
2018-12-07T02:59:11.591Z,10.69
2018-12-07T03:00:11.458Z,10.69
2018-12-07T03:01:11.571Z,10.67
2018-12-07T03:02:11.893Z,10.69
2018-12-07T03:03:11.561Z,10.64
2018-12-07T03:04:11.572Z,10.63
2018-12-07T03:05:11.478Z,10.67
2018-12-07T03:06:11.503Z,10.64
2018-12-07T03:07:11.569Z,10.65
2018-12-07T03:08:11.742Z,10.65
2018-12-07T03:09:11.534Z,10.68
2018-12-07T03:10:11.735Z,10.64
2018-12-07T03:11:11.476Z,10.64
2018-12-07T03:12:11.525Z,10.64
2018-12-07T03:13:11.588Z,10.67
2018-12-07T03:14:11.466Z,10.62
2018-12-07T03:15:11.489Z,10.63
2018-12-07T03:16:11.488Z,10.65
2018-12-07T03:17:11.609Z,10.65
2018-12-07T03:18:11.446Z,10.61
2018-12-07T03:19:11.443Z,10.64
2018-12-07T03:20:11.499Z,10.62
2018-12-07T03:21:11.482Z,10.63
2018-12-07T03:22:11.450Z,10.62
2018-12-07T03:23:11.460Z,10.61
2018-12-07T03:24:11.450Z,10.6
2018-12-07T03:25:11.552Z,10.62
2018-12-07T03:26:11.486Z,10.63
2018-12-07T03:27:11.654Z,10.61
2018-12-07T03:28:11.487Z,10.59
2018-12-07T03:29:11.484Z,10.58
2018-12-07T03:30:11.473Z,10.57
2018-12-07T03:31:11.558Z,10.58
2018-12-07T03:32:11.817Z,10.59
2018-12-07T03:33:11.633Z,10.55
2018-12-07T03:34:11.433Z,10.53
2018-12-07T03:35:11.482Z,10.53
2018-12-07T03:36:11.717Z,10.53
2018-12-07T03:37:11.426Z,10.55
2018-12-07T03:38:11.504Z,10.54
2018-12-07T03:39:11.406Z,10.56
2018-12-07T03:40:11.617Z,10.55
2018-12-07T03:41:11.716Z,10.55
2018-12-07T03:42:11.590Z,10.53
2018-12-07T03:43:11.504Z,10.53
2018-12-07T03:44:11.628Z,10.55
2018-12-07T03:45:11.603Z,10.55
2018-12-07T03:46:11.441Z,10.52
2018-12-07T03:47:11.464Z,10.53
2018-12-07T03:48:11.437Z,10.53
2018-12-07T03:49:11.454Z,10.52
2018-12-07T03:50:11.527Z,10.53
2018-12-07T03:51:11.628Z,10.5
2018-12-07T03:52:11.591Z,10.54
2018-12-07T03:53:11.490Z,10.51
2018-12-07T03:54:11.466Z,10.52
2018-12-07T03:55:11.554Z,10.49
2018-12-07T03:56:11.491Z,10.51
2018-12-07T03:57:11.855Z,10.51
2018-12-07T03:58:11.523Z,10.49
2018-12-07T03:59:11.475Z,10.52
2018-12-07T04:00:11.469Z,10.51
2018-12-07T04:01:11.561Z,10.52
2018-12-07T04:02:11.462Z,10.49
2018-12-07T04:03:11.516Z,10.5
2018-12-07T04:04:11.567Z,10.5
2018-12-07T04:05:11.484Z,10.5
2018-12-07T04:06:11.405Z,10.5
2018-12-07T04:07:11.519Z,10.48
2018-12-07T04:08:11.508Z,10.46
2018-12-07T04:09:11.619Z,10.46
2018-12-07T04:10:11.674Z,10.43
2018-12-07T04:11:11.501Z,10.46
2018-12-07T04:12:11.431Z,10.45
2018-12-07T04:13:11.427Z,10.42
2018-12-07T04:14:11.727Z,10.4
2018-12-07T04:15:11.457Z,10.42
2018-12-07T04:16:11.390Z,10.41
2018-12-07T04:17:11.415Z,10.43
2018-12-07T04:18:11.405Z,10.41
2018-12-07T04:19:11.455Z,10.42
2018-12-07T04:20:11.389Z,10.43
2018-12-07T04:21:11.368Z,10.41
2018-12-07T04:22:11.607Z,10.43
2018-12-07T04:23:11.568Z,10.41
2018-12-07T04:24:11.574Z,10.38
2018-12-07T04:25:11.380Z,10.38
2018-12-07T04:26:11.487Z,10.35
2018-12-07T04:27:11.555Z,10.37
2018-12-07T04:28:11.501Z,10.36
2018-12-07T04:29:12.219Z,10.38
2018-12-07T04:30:11.400Z,10.34
2018-12-07T04:31:11.420Z,10.36
2018-12-07T04:32:11.680Z,10.34
2018-12-07T04:33:11.473Z,10.32
2018-12-07T04:34:11.539Z,10.33
2018-12-07T04:35:11.503Z,10.32
2018-12-07T04:36:11.442Z,10.33
2018-12-07T04:37:11.568Z,10.31
2018-12-07T04:38:11.502Z,10.3
2018-12-07T04:39:11.644Z,10.33
2018-12-07T04:40:11.424Z,10.29
2018-12-07T04:41:11.510Z,10.32
2018-12-07T04:42:11.569Z,10.31
2018-12-07T04:43:11.846Z,10.29
2018-12-07T04:44:11.629Z,10.3
2018-12-07T04:45:11.568Z,10.26
2018-12-07T04:46:11.631Z,10.22
2018-12-07T04:47:11.539Z,10.23
2018-12-07T04:48:11.406Z,10.24
2018-12-07T04:49:11.448Z,10.25
2018-12-07T04:50:11.487Z,10.26
2018-12-07T04:51:11.471Z,10.24
2018-12-07T04:52:11.345Z,10.22
2018-12-07T04:53:11.353Z,10.22
2018-12-07T04:54:11.534Z,10.22
2018-12-07T04:55:11.393Z,10.21
2018-12-07T04:56:11.366Z,10.23
2018-12-07T04:57:11.381Z,10.24
2018-12-07T04:58:11.509Z,10.22
2018-12-07T04:59:11.653Z,10.21
2018-12-07T05:00:11.457Z,10.21
2018-12-07T05:01:11.372Z,10.21
2018-12-07T05:02:11.470Z,10.2
2018-12-07T05:03:11.494Z,10.19
2018-12-07T05:04:11.330Z,10.15
2018-12-07T05:05:11.507Z,10.18
2018-12-07T05:06:11.373Z,10.18
2018-12-07T05:07:11.400Z,10.14
2018-12-07T05:08:11.378Z,10.17
2018-12-07T05:09:11.537Z,10.14
2018-12-07T05:10:11.360Z,10.14
2018-12-07T05:11:11.380Z,10.15
2018-12-07T05:12:11.387Z,10.15
2018-12-07T05:13:11.317Z,10.16
2018-12-07T05:14:11.904Z,10.14
2018-12-07T05:15:11.360Z,10.14
2018-12-07T05:16:11.498Z,10.14
2018-12-07T05:17:11.474Z,10.14
2018-12-07T05:18:11.459Z,10.15
2018-12-07T05:19:11.877Z,10.15
2018-12-07T05:20:11.498Z,10.13
2018-12-07T05:21:11.485Z,10.12
2018-12-07T05:22:11.464Z,10.15
2018-12-07T05:23:11.551Z,10.16
2018-12-07T05:24:11.400Z,10.18
2018-12-07T05:25:11.378Z,10.19
2018-12-07T05:26:11.451Z,10.2
2018-12-07T05:27:11.362Z,10.23
2018-12-07T05:28:11.355Z,10.2
2018-12-07T05:29:11.359Z,10.24
2018-12-07T05:30:11.701Z,10.23
2018-12-07T05:31:12.170Z,10.25
2018-12-07T05:32:11.326Z,10.25
2018-12-07T05:33:11.353Z,10.22
2018-12-07T05:34:11.696Z,10.21
2018-12-07T05:35:11.653Z,10.23
2018-12-07T05:36:11.524Z,10.18
2018-12-07T05:37:11.706Z,10.17
2018-12-07T05:38:11.501Z,10.17
2018-12-07T05:39:12.127Z,10.16
2018-12-07T05:40:11.417Z,10.14
2018-12-07T05:41:11.481Z,10.11
2018-12-07T05:42:11.280Z,10.09
2018-12-07T05:43:11.628Z,10.13
2018-12-07T05:44:11.436Z,10.08
2018-12-07T05:45:11.529Z,10.11
2018-12-07T05:46:11.706Z,10.07
2018-12-07T05:47:11.383Z,10.09
2018-12-07T05:48:11.330Z,10.03
2018-12-07T05:49:12.140Z,10.05
2018-12-07T05:50:11.456Z,10.07
2018-12-07T05:51:11.325Z,10.07
2018-12-07T05:52:11.523Z,10.04
2018-12-07T05:53:11.477Z,10.05
2018-12-07T05:54:11.276Z,10.04
2018-12-07T05:55:11.287Z,10.06
2018-12-07T05:56:11.348Z,10.06
2018-12-07T05:57:11.351Z,10.08
2018-12-07T05:58:11.305Z,10.04
2018-12-07T05:59:11.410Z,10.05
2018-12-07T06:00:11.681Z,10.04
2018-12-07T06:01:11.294Z,10.04
2018-12-07T06:02:11.488Z,10.08
2018-12-07T06:03:11.342Z,10.08
2018-12-07T06:04:11.402Z,10.08
2018-12-07T06:05:11.437Z,10.09
2018-12-07T06:06:11.387Z,10.09
2018-12-07T06:07:11.443Z,10.14
2018-12-07T06:08:11.407Z,10.13
2018-12-07T06:09:11.451Z,10.08
2018-12-07T06:10:11.314Z,10.06
2018-12-07T06:11:11.407Z,10.04
2018-12-07T06:12:11.298Z,10.06
2018-12-07T06:13:11.291Z,10.04
2018-12-07T06:14:11.342Z,9.99
2018-12-07T06:15:11.731Z,10
2018-12-07T06:16:11.627Z,10.01
2018-12-07T06:17:11.530Z,9.99
2018-12-07T06:18:11.338Z,9.98
2018-12-07T06:19:11.568Z,10.03
2018-12-07T06:20:11.259Z,10.04
2018-12-07T06:21:11.391Z,10.05
2018-12-07T06:22:11.450Z,10
2018-12-07T06:23:11.221Z,10.01
2018-12-07T06:24:11.308Z,9.99
2018-12-07T06:25:11.385Z,9.98
2018-12-07T06:26:11.259Z,9.98
2018-12-07T06:27:11.232Z,9.95
2018-12-07T06:28:11.359Z,10.04
2018-12-07T06:29:11.595Z,9.96
2018-12-07T06:30:11.349Z,10
2018-12-07T06:31:12.382Z,9.96
2018-12-07T06:32:11.833Z,9.92
2018-12-07T06:33:11.239Z,9.92
2018-12-07T06:34:11.532Z,9.95
2018-12-07T06:35:11.279Z,9.98
2018-12-07T06:36:11.220Z,9.95
2018-12-07T06:37:11.227Z,9.96
2018-12-07T06:38:11.266Z,9.92
2018-12-07T06:39:11.459Z,9.92
2018-12-07T06:40:11.222Z,9.96
2018-12-07T06:41:11.224Z,9.92
2018-12-07T06:42:11.367Z,9.95
2018-12-07T06:43:11.530Z,9.92
2018-12-07T06:44:11.306Z,9.91
2018-12-07T06:45:11.251Z,9.89
2018-12-07T06:46:11.379Z,9.89
2018-12-07T06:47:11.369Z,9.87
2018-12-07T06:48:11.413Z,9.9
2018-12-07T06:49:11.420Z,9.88
2018-12-07T06:50:11.317Z,9.86
2018-12-07T06:51:11.431Z,9.84
2018-12-07T06:52:11.200Z,9.83
2018-12-07T06:53:11.346Z,9.84
2018-12-07T06:54:11.458Z,9.83
2018-12-07T06:55:11.207Z,9.85
2018-12-07T06:56:11.250Z,9.82
2018-12-07T06:57:11.174Z,9.81
2018-12-07T06:58:11.243Z,9.79
2018-12-07T06:59:11.291Z,9.74
2018-12-07T07:00:11.222Z,9.75
2018-12-07T07:01:11.388Z,9.7
2018-12-07T07:02:11.585Z,9.76
2018-12-07T07:03:11.302Z,9.74
2018-12-07T07:04:11.182Z,9.67
2018-12-07T07:05:11.424Z,9.71
2018-12-07T07:06:11.409Z,9.64
2018-12-07T07:07:11.380Z,9.64
2018-12-07T07:08:11.218Z,9.61
2018-12-07T07:09:11.305Z,9.62
2018-12-07T07:10:11.175Z,9.59
2018-12-07T07:11:11.342Z,9.58
2018-12-07T07:12:11.280Z,9.54
2018-12-07T07:13:11.376Z,9.57
2018-12-07T07:14:11.362Z,9.59
2018-12-07T07:15:11.200Z,9.59
2018-12-07T07:16:11.221Z,9.59
2018-12-07T07:17:11.586Z,9.59
2018-12-07T07:18:11.269Z,9.55
2018-12-07T07:19:11.209Z,9.55
2018-12-07T07:20:11.289Z,9.58
2018-12-07T07:21:11.994Z,9.55
2018-12-07T07:22:11.165Z,9.55
2018-12-07T07:23:11.172Z,9.55
2018-12-07T07:24:11.348Z,9.58
2018-12-07T07:25:11.257Z,9.54
2018-12-07T07:26:11.550Z,9.5
2018-12-07T07:27:11.179Z,9.57
2018-12-07T07:28:11.171Z,9.51
2018-12-07T07:29:11.371Z,9.55
2018-12-07T07:30:11.202Z,9.6
2018-12-07T07:31:12.010Z,9.55
2018-12-07T07:32:11.203Z,9.57
2018-12-07T07:33:11.272Z,9.56
2018-12-07T07:34:11.412Z,9.55
2018-12-07T07:35:11.338Z,9.59
2018-12-07T07:36:11.500Z,9.6
2018-12-07T07:37:11.232Z,9.56
2018-12-07T07:38:11.173Z,9.54
2018-12-07T07:39:11.290Z,9.55
2018-12-07T07:40:11.170Z,9.53
2018-12-07T07:41:11.350Z,9.57
2018-12-07T07:42:11.145Z,9.6
2018-12-07T07:43:11.214Z,9.62
2018-12-07T07:44:11.167Z,9.61
2018-12-07T07:45:11.234Z,9.58
2018-12-07T07:46:11.145Z,9.57
2018-12-07T07:47:11.167Z,9.62
2018-12-07T07:48:11.161Z,9.59
2018-12-07T07:49:11.709Z,9.59
2018-12-07T07:50:11.168Z,9.6
2018-12-07T07:51:11.322Z,9.6
2018-12-07T07:52:11.323Z,9.58
2018-12-07T07:53:11.434Z,9.59
2018-12-07T07:54:11.338Z,9.59
2018-12-07T07:55:11.300Z,9.57
2018-12-07T07:56:15.902Z,9.59
2018-12-07T07:57:11.153Z,9.54
2018-12-07T07:58:11.253Z,9.59
2018-12-07T07:59:11.122Z,9.61
2018-12-07T08:00:11.149Z,9.59
2018-12-07T08:01:11.479Z,9.56
2018-12-07T08:02:11.125Z,9.58
2018-12-07T08:03:11.160Z,9.54
2018-12-07T08:04:11.106Z,9.58
2018-12-07T08:05:11.140Z,9.58
2018-12-07T08:06:11.255Z,9.61
2018-12-07T08:07:11.278Z,9.61
2018-12-07T08:08:11.098Z,9.59
2018-12-07T08:09:11.159Z,9.59
2018-12-07T08:10:11.112Z,9.61
2018-12-07T08:11:11.178Z,9.59
2018-12-07T08:12:11.186Z,9.57
2018-12-07T08:13:11.139Z,9.56
2018-12-07T08:14:11.141Z,9.58
2018-12-07T08:15:11.148Z,9.55
2018-12-07T08:16:11.209Z,9.59
2018-12-07T08:17:11.112Z,9.55
2018-12-07T08:18:11.101Z,9.6
2018-12-07T08:19:11.093Z,9.57
2018-12-07T08:20:11.234Z,9.58
2018-12-07T08:21:11.145Z,9.57
2018-12-07T08:22:11.128Z,9.58
2018-12-07T08:23:15.311Z,9.59
2018-12-07T08:24:11.338Z,9.6
2018-12-07T08:25:11.171Z,9.55
2018-12-07T08:26:11.448Z,9.57
2018-12-07T08:27:11.304Z,9.54
2018-12-07T08:28:11.115Z,9.56
2018-12-07T08:29:11.206Z,9.6
2018-12-07T08:30:11.483Z,9.6
2018-12-07T08:31:11.968Z,9.58
2018-12-07T08:32:11.251Z,9.59
2018-12-07T08:33:11.123Z,9.61
2018-12-07T08:34:11.334Z,9.61
2018-12-07T08:35:11.942Z,9.6
2018-12-07T08:36:11.462Z,9.61
2018-12-07T08:37:11.465Z,9.6
2018-12-07T08:38:11.442Z,9.62
2018-12-07T08:39:11.072Z,9.62
2018-12-07T08:40:11.133Z,9.57
2018-12-07T08:41:11.220Z,9.58
2018-12-07T08:42:11.534Z,9.56
2018-12-07T08:43:11.220Z,9.57
2018-12-07T08:44:11.278Z,9.56
2018-12-07T08:45:11.090Z,9.53
2018-12-07T08:46:11.303Z,9.58
2018-12-07T08:47:11.399Z,9.56
2018-12-07T08:48:11.346Z,9.57
2018-12-07T08:49:11.209Z,9.53
2018-12-07T08:50:11.359Z,9.57
2018-12-07T08:51:11.081Z,9.53
2018-12-07T08:52:11.165Z,9.56
2018-12-07T08:53:11.546Z,9.56
2018-12-07T08:54:11.182Z,9.57
2018-12-07T08:55:11.114Z,9.6
2018-12-07T08:56:11.131Z,9.55
2018-12-07T08:57:11.185Z,9.54
2018-12-07T08:58:11.171Z,9.56
2018-12-07T08:59:11.367Z,9.58
2018-12-07T09:00:11.049Z,9.58
2018-12-07T09:01:11.211Z,9.59
2018-12-07T09:02:11.357Z,9.55
2018-12-07T09:03:11.286Z,9.57
2018-12-07T09:04:11.194Z,9.52
2018-12-07T09:05:11.190Z,9.53
2018-12-07T09:06:11.354Z,9.59
2018-12-07T09:07:11.135Z,9.58
2018-12-07T09:08:15.788Z,9.6
2018-12-07T09:09:11.231Z,9.55
2018-12-07T09:10:11.049Z,9.55
2018-12-07T09:11:11.044Z,9.56
2018-12-07T09:12:11.443Z,9.59
2018-12-07T09:13:11.349Z,9.61
2018-12-07T09:14:11.168Z,9.59
2018-12-07T09:15:11.138Z,9.6
2018-12-07T09:16:11.389Z,9.6
2018-12-07T09:17:11.125Z,9.56
2018-12-07T09:18:11.831Z,9.57
2018-12-07T09:19:11.064Z,9.56
2018-12-07T09:20:11.051Z,9.59
2018-12-07T09:21:11.152Z,9.59
2018-12-07T09:22:11.277Z,9.62
2018-12-07T09:23:11.326Z,9.6
2018-12-07T09:24:11.392Z,9.58
2018-12-07T09:25:11.225Z,9.64
2018-12-07T09:26:11.076Z,9.62
2018-12-07T09:27:11.034Z,9.62
2018-12-07T09:28:11.179Z,9.63
2018-12-07T09:29:11.521Z,9.59
2018-12-07T09:30:11.146Z,9.63
2018-12-07T09:31:11.236Z,9.58
2018-12-07T09:32:11.128Z,9.61
2018-12-07T09:33:11.111Z,9.63
2018-12-07T09:34:11.332Z,9.62
2018-12-07T09:35:11.167Z,9.6
2018-12-07T09:36:11.254Z,9.6
2018-12-07T09:37:11.293Z,9.61
2018-12-07T09:38:13.599Z,9.61
2018-12-07T09:39:11.264Z,9.57
2018-12-07T09:40:11.059Z,9.62
2018-12-07T09:41:11.057Z,9.62
2018-12-07T09:42:11.037Z,9.64
2018-12-07T09:43:11.084Z,9.58
2018-12-07T09:44:11.070Z,9.62
2018-12-07T09:45:11.148Z,9.61
2018-12-07T09:46:11.083Z,9.64
2018-12-07T09:47:11.199Z,9.62
2018-12-07T09:48:11.092Z,9.63
2018-12-07T09:49:11.089Z,9.6
2018-12-07T09:50:11.010Z,9.59
2018-12-07T09:51:11.302Z,9.6
2018-12-07T09:52:11.106Z,9.62
2018-12-07T09:53:11.169Z,9.65
2018-12-07T09:54:11.030Z,9.63
2018-12-07T09:55:11.034Z,9.65
2018-12-07T09:56:11.165Z,9.66
2018-12-07T09:57:11.376Z,9.69
2018-12-07T09:58:11.030Z,9.66
2018-12-07T09:59:11.019Z,9.68
2018-12-07T10:00:11.340Z,9.7
2018-12-07T10:01:11.129Z,9.68
2018-12-07T10:02:11.366Z,9.67
2018-12-07T10:03:11.373Z,9.65
2018-12-07T10:04:11.131Z,9.59
2018-12-07T10:05:11.388Z,9.68
2018-12-07T10:06:11.198Z,9.62
2018-12-07T10:07:11.191Z,9.63
2018-12-07T10:08:11.056Z,9.62
2018-12-07T10:09:11.802Z,9.64
2018-12-07T10:10:11.102Z,9.65
2018-12-07T10:11:11.095Z,9.64
2018-12-07T10:12:11.154Z,9.63
2018-12-07T10:13:11.115Z,9.68
2018-12-07T10:14:11.201Z,9.67
2018-12-07T10:15:11.061Z,9.66
2018-12-07T10:16:11.182Z,9.64
2018-12-07T10:17:11.194Z,9.67
2018-12-07T10:18:11.184Z,9.66
2018-12-07T10:19:11.157Z,9.68
2018-12-07T10:20:11.206Z,9.62
2018-12-07T10:21:11.169Z,9.63
2018-12-07T10:22:11.451Z,9.63
2018-12-07T10:23:11.067Z,9.58
2018-12-07T10:24:10.981Z,9.64
2018-12-07T10:25:11.045Z,9.63
2018-12-07T10:26:11.120Z,9.63
2018-12-07T10:27:11.044Z,9.7
2018-12-07T10:28:11.151Z,9.67
2018-12-07T10:29:11.072Z,9.65
2018-12-07T10:30:11.093Z,9.68
2018-12-07T10:31:11.211Z,9.62
2018-12-07T10:32:10.961Z,9.63
2018-12-07T10:33:11.172Z,9.63
2018-12-07T10:34:11.097Z,9.62
2018-12-07T10:35:11.014Z,9.61
2018-12-07T10:36:11.111Z,9.63
2018-12-07T10:37:11.205Z,9.64
2018-12-07T10:38:11.111Z,9.67
2018-12-07T10:39:11.040Z,9.64
2018-12-07T10:40:11.124Z,9.66
2018-12-07T10:41:11.093Z,9.65
2018-12-07T10:42:12.650Z,9.65
2018-12-07T10:43:11.256Z,9.64
2018-12-07T10:44:10.963Z,9.65
2018-12-07T10:45:11.091Z,9.63
2018-12-07T10:46:11.065Z,9.59
2018-12-07T10:47:11.226Z,9.6
2018-12-07T10:48:11.066Z,9.58
2018-12-07T10:49:11.325Z,9.57
2018-12-07T10:50:10.940Z,9.59
2018-12-07T10:51:10.985Z,9.58
2018-12-07T10:52:11.124Z,9.6
2018-12-07T10:53:11.034Z,9.59
2018-12-07T10:54:11.213Z,9.59
2018-12-07T10:55:11.125Z,9.57
2018-12-07T10:56:11.259Z,9.56
2018-12-07T10:57:11.054Z,9.55
2018-12-07T10:58:11.194Z,9.54
2018-12-07T10:59:10.913Z,9.61
2018-12-07T11:00:10.920Z,9.62
2018-12-07T11:01:10.954Z,9.61
2018-12-07T11:02:11.147Z,9.6
2018-12-07T11:03:10.941Z,9.58
2018-12-07T11:04:10.917Z,9.55
2018-12-07T11:05:11.084Z,9.63
2018-12-07T11:06:11.171Z,9.66
2018-12-07T11:07:11.021Z,9.6
2018-12-07T11:08:11.236Z,9.63
2018-12-07T11:09:10.994Z,9.6
2018-12-07T11:10:10.980Z,9.65
2018-12-07T11:11:10.980Z,9.59
2018-12-07T11:12:10.928Z,9.61
2018-12-07T11:13:11.179Z,9.62
2018-12-07T11:14:11.073Z,9.6
2018-12-07T11:15:11.140Z,9.63
2018-12-07T11:16:11.148Z,9.63
2018-12-07T11:17:10.947Z,9.66
2018-12-07T11:18:10.937Z,9.65
2018-12-07T11:19:11.008Z,9.59
2018-12-07T11:20:10.953Z,9.61
2018-12-07T11:21:11.199Z,9.54
2018-12-07T11:22:11.043Z,9.49
2018-12-07T11:23:11.127Z,9.51
2018-12-07T11:24:10.880Z,9.55
2018-12-07T11:25:10.938Z,9.55
2018-12-07T11:26:10.890Z,9.56
2018-12-07T11:27:10.899Z,9.61
2018-12-07T11:28:10.865Z,9.64
2018-12-07T11:29:10.906Z,9.67
2018-12-07T11:30:10.885Z,9.71
2018-12-07T11:31:10.896Z,9.73
2018-12-07T11:32:11.012Z,9.82
2018-12-07T11:33:10.858Z,9.73
2018-12-07T11:34:10.881Z,9.77
2018-12-07T11:35:10.863Z,9.86
2018-12-07T11:36:11.178Z,9.74
2018-12-07T11:37:10.955Z,9.61
2018-12-07T11:38:11.130Z,9.71
2018-12-07T11:39:12.922Z,9.66
2018-12-07T11:40:11.241Z,9.7
2018-12-07T11:41:11.115Z,9.61
2018-12-07T11:42:11.187Z,9.51
2018-12-07T11:43:11.088Z,9.51
2018-12-07T11:44:11.001Z,9.48
2018-12-07T11:45:10.960Z,9.48
2018-12-07T11:46:10.901Z,9.49
2018-12-07T11:47:11.073Z,9.51
2018-12-07T11:48:11.080Z,9.46
2018-12-07T11:49:11.118Z,9.46
2018-12-07T11:50:11.008Z,9.39
2018-12-07T11:51:10.912Z,9.43
2018-12-07T11:52:11.046Z,9.37
2018-12-07T11:53:11.161Z,9.31
2018-12-07T11:54:11.312Z,9.31
2018-12-07T11:55:11.059Z,9.29
2018-12-07T11:56:11.088Z,9.34
2018-12-07T11:57:11.081Z,9.42
2018-12-07T11:58:11.252Z,9.41
2018-12-07T11:59:11.379Z,9.39
2018-12-07T12:00:10.973Z,9.45
2018-12-07T12:01:11.028Z,9.4
2018-12-07T12:02:11.316Z,9.36
2018-12-07T12:03:11.116Z,9.39
2018-12-07T12:04:11.232Z,9.46
2018-12-07T12:05:11.201Z,9.38
2018-12-07T12:06:11.060Z,9.4
2018-12-07T12:07:10.983Z,9.38
2018-12-07T12:08:11.025Z,9.32
2018-12-07T12:09:11.061Z,9.4
2018-12-07T12:10:11.120Z,9.34
2018-12-07T12:11:11.141Z,9.37
2018-12-07T12:12:11.214Z,9.39
2018-12-07T12:13:11.170Z,9.42
2018-12-07T12:14:10.888Z,9.45
2018-12-07T12:15:10.894Z,9.42
2018-12-07T12:16:10.945Z,9.45
2018-12-07T12:17:11.052Z,9.46
2018-12-07T12:18:10.867Z,9.46
2018-12-07T12:19:11.065Z,9.46
2018-12-07T12:20:10.952Z,9.5
2018-12-07T12:21:11.344Z,9.47
2018-12-07T12:22:11.043Z,9.48
2018-12-07T12:23:11.074Z,9.52
2018-12-07T12:24:10.971Z,9.52
2018-12-07T12:25:10.844Z,9.53
2018-12-07T12:26:11.213Z,9.51
2018-12-07T12:27:10.839Z,9.54
2018-12-07T12:28:10.849Z,9.55
2018-12-07T12:29:10.808Z,9.57
2018-12-07T12:30:10.980Z,9.59
2018-12-07T12:31:10.887Z,9.64
2018-12-07T12:32:10.829Z,9.64
2018-12-07T12:33:10.821Z,9.68
2018-12-07T12:34:10.887Z,9.69
2018-12-07T12:35:11.006Z,9.69
2018-12-07T12:36:17.538Z,9.77
2018-12-07T12:37:11.032Z,9.7
2018-12-07T12:38:10.982Z,9.7
2018-12-07T12:39:10.820Z,9.69
2018-12-07T12:40:10.808Z,9.68
2018-12-07T12:41:10.802Z,9.69
2018-12-07T12:42:10.944Z,9.73
2018-12-07T12:43:10.953Z,9.73
2018-12-07T12:44:10.955Z,9.7
2018-12-07T12:45:10.795Z,9.66
2018-12-07T12:46:11.581Z,9.66
2018-12-07T12:47:10.988Z,9.61
2018-12-07T12:48:11.106Z,9.6
2018-12-07T12:49:10.775Z,9.59
2018-12-07T12:50:10.827Z,9.6
2018-12-07T12:51:10.989Z,9.62
2018-12-07T12:52:10.773Z,9.55
2018-12-07T12:53:10.811Z,9.59
2018-12-07T12:54:10.758Z,9.59
2018-12-07T12:55:10.812Z,9.62
2018-12-07T12:56:11.111Z,9.62
2018-12-07T12:57:11.011Z,9.61
2018-12-07T12:58:11.060Z,9.6
2018-12-07T12:59:11.001Z,9.6
2018-12-07T13:00:10.795Z,9.58
2018-12-07T13:01:10.871Z,9.61
2018-12-07T13:02:10.800Z,9.6
2018-12-07T13:03:11.148Z,9.61
2018-12-07T13:04:10.831Z,9.6
2018-12-07T13:05:10.779Z,9.62
2018-12-07T13:06:10.787Z,9.53
2018-12-07T13:07:11.152Z,9.51
2018-12-07T13:08:10.807Z,9.47